sensor_id;sensor_type;location;lat;lon;timestamp;P1;durP1;ratioP1;P2;durP2;ratioP2
3405;SDS011;10008;48.682;9.016;2023-06-26T00:01:05;12.60;;;11.60;;
3405;SDS011;10008;48.682;9.016;2023-06-26T00:03:30;12.50;;;11.50;;
3405;SDS011;10008;48.682;9.016;2023-06-26T00:05:57;12.53;;;11.53;;
3405;SDS011;10008;48.682;9.016;2023-06-26T00:08:25;13.13;;;12.13;;
3405;SDS011;10008;48.682;9.016;2023-06-26T00:10:52;12.60;;;11.60;;
3405;SDS011;10008;48.682;9.016;2023-06-26T00:13:18;13.60;;;12.50;;
3405;SDS011;10008;48.682;9.016;2023-06-26T00:15:45;12.40;;;11.40;;
3405;SDS011;10008;48.682;9.016;2023-06-26T00:18:11;12.60;;;11.60;;
3405;SDS011;10008;48.682;9.016;2023-06-26T00:20:36;12.70;;;11.70;;
3405;SDS011;10008;48.682;9.016;2023-06-26T00:23:02;12.40;;;11.40;;
3405;SDS011;10008;48.682;9.016;2023-06-26T00:25:32;12.60;;;11.60;;
3405;SDS011;10008;48.682;9.016;2023-06-26T00:27:59;12.50;;;11.50;;
3405;SDS011;10008;48.682;9.016;2023-06-26T00:30:24;12.70;;;11.70;;
3405;SDS011;10008;48.682;9.016;2023-06-26T00:32:50;12.70;;;11.70;;
3405;SDS011;10008;48.682;9.016;2023-06-26T00:35:16;12.80;;;11.80;;
3405;SDS011;10008;48.682;9.016;2023-06-26T00:37:43;12.50;;;11.50;;
3405;SDS011;10008;48.682;9.016;2023-06-26T00:40:09;12.40;;;11.40;;
3405;SDS011;10008;48.682;9.016;2023-06-26T00:42:35;12.20;;;11.20;;
3405;SDS011;10008;48.682;9.016;2023-06-26T00:45:01;13.00;;;12.00;;
3405;SDS011;10008;48.682;9.016;2023-06-26T00:47:29;12.30;;;11.30;;
3405;SDS011;10008;48.682;9.016;2023-06-26T00:49:55;12.43;;;11.43;;
3405;SDS011;10008;48.682;9.016;2023-06-26T00:52:21;12.60;;;11.60;;
3405;SDS011;10008;48.682;9.016;2023-06-26T00:54:49;12.60;;;11.60;;
3405;SDS011;10008;48.682;9.016;2023-06-26T00:57:17;12.60;;;11.60;;
3405;SDS011;10008;48.682;9.016;2023-06-26T00:59:43;13.03;;;12.03;;
3405;SDS011;10008;48.682;9.016;2023-06-26T01:02:09;12.70;;;11.70;;
3405;SDS011;10008;48.682;9.016;2023-06-26T01:04:35;13.00;;;12.00;;
3405;SDS011;10008;48.682;9.016;2023-06-26T01:07:01;12.73;;;11.73;;
3405;SDS011;10008;48.682;9.016;2023-06-26T01:09:28;12.77;;;11.77;;
3405;SDS011;10008;48.682;9.016;2023-06-26T01:11:55;12.70;;;11.70;;
3405;SDS011;10008;48.682;9.016;2023-06-26T01:14:21;12.90;;;11.90;;
3405;SDS011;10008;48.682;9.016;2023-06-26T01:16:47;12.30;;;11.40;;
3405;SDS011;10008;48.682;9.016;2023-06-26T01:19:24;12.70;;;11.70;;
3405;SDS011;10008;48.682;9.016;2023-06-26T01:22:00;12.20;;;11.30;;
3405;SDS011;10008;48.682;9.016;2023-06-26T01:24:39;12.70;;;11.70;;
3405;SDS011;10008;48.682;9.016;2023-06-26T01:27:13;12.33;;;11.40;;
3405;SDS011;10008;48.682;9.016;2023-06-26T01:29:40;12.30;;;11.40;;
3405;SDS011;10008;48.682;9.016;2023-06-26T01:32:08;12.20;;;11.30;;
3405;SDS011;10008;48.682;9.016;2023-06-26T01:34:34;12.40;;;11.50;;
3405;SDS011;10008;48.682;9.016;2023-06-26T01:37:00;12.20;;;11.30;;
3405;SDS011;10008;48.682;9.016;2023-06-26T01:39:26;12.50;;;11.50;;
3405;SDS011;10008;48.682;9.016;2023-06-26T01:41:51;12.50;;;11.50;;
3405;SDS011;10008;48.682;9.016;2023-06-26T01:44:20;12.33;;;11.40;;
3405;SDS011;10008;48.682;9.016;2023-06-26T01:50:05;12.40;;;11.40;;
3405;SDS011;10008;48.682;9.016;2023-06-26T01:58:24;12.13;;;11.23;;
3405;SDS011;10008;48.682;9.016;2023-06-26T02:00:51;12.20;;;11.30;;
3405;SDS011;10008;48.682;9.016;2023-06-26T02:03:17;12.10;;;11.20;;
3405;SDS011;10008;48.682;9.016;2023-06-26T02:05:43;12.27;;;11.37;;
3405;SDS011;10008;48.682;9.016;2023-06-26T02:08:09;11.70;;;10.80;;
3405;SDS011;10008;48.682;9.016;2023-06-26T02:10:35;11.90;;;11.00;;
3405;SDS011;10008;48.682;9.016;2023-06-26T02:13:01;11.70;;;10.80;;
3405;SDS011;10008;48.682;9.016;2023-06-26T02:15:27;12.00;;;11.10;;
3405;SDS011;10008;48.682;9.016;2023-06-26T02:17:53;11.77;;;10.87;;
3405;SDS011;10008;48.682;9.016;2023-06-26T02:20:19;11.83;;;10.93;;
3405;SDS011;10008;48.682;9.016;2023-06-26T02:22:44;11.90;;;11.00;;
3405;SDS011;10008;48.682;9.016;2023-06-26T02:25:10;11.60;;;10.70;;
3405;SDS011;10008;48.682;9.016;2023-06-26T02:27:37;11.53;;;10.63;;
3405;SDS011;10008;48.682;9.016;2023-06-26T02:30:03;11.97;;;11.07;;
3405;SDS011;10008;48.682;9.016;2023-06-26T02:32:29;12.83;;;11.83;;
3405;SDS011;10008;48.682;9.016;2023-06-26T02:34:55;12.00;;;11.10;;
3405;SDS011;10008;48.682;9.016;2023-06-26T02:37:21;12.10;;;11.20;;
3405;SDS011;10008;48.682;9.016;2023-06-26T02:39:47;11.90;;;11.00;;
3405;SDS011;10008;48.682;9.016;2023-06-26T02:42:12;11.97;;;11.07;;
3405;SDS011;10008;48.682;9.016;2023-06-26T02:44:38;11.67;;;10.77;;
3405;SDS011;10008;48.682;9.016;2023-06-26T02:47:04;12.00;;;11.10;;
3405;SDS011;10008;48.682;9.016;2023-06-26T02:49:31;11.50;;;10.60;;
3405;SDS011;10008;48.682;9.016;2023-06-26T02:51:56;12.00;;;11.10;;
3405;SDS011;10008;48.682;9.016;2023-06-26T02:54:26;11.73;;;10.83;;
3405;SDS011;10008;48.682;9.016;2023-06-26T02:56:55;11.90;;;11.00;;
3405;SDS011;10008;48.682;9.016;2023-06-26T02:59:26;12.03;;;11.10;;
3405;SDS011;10008;48.682;9.016;2023-06-26T03:01:53;12.03;;;11.10;;
3405;SDS011;10008;48.682;9.016;2023-06-26T03:04:22;12.40;;;11.40;;
3405;SDS011;10008;48.682;9.016;2023-06-26T03:06:48;12.40;;;11.40;;
3405;SDS011;10008;48.682;9.016;2023-06-26T03:09:14;12.50;;;11.50;;
3405;SDS011;10008;48.682;9.016;2023-06-26T03:11:41;12.60;;;11.60;;
3405;SDS011;10008;48.682;9.016;2023-06-26T03:14:07;12.47;;;11.47;;
3405;SDS011;10008;48.682;9.016;2023-06-26T03:16:33;12.37;;;11.37;;
3405;SDS011;10008;48.682;9.016;2023-06-26T03:18:58;12.20;;;11.20;;
3405;SDS011;10008;48.682;9.016;2023-06-26T03:21:25;12.30;;;11.30;;
3405;SDS011;10008;48.682;9.016;2023-06-26T03:23:51;12.10;;;11.10;;
3405;SDS011;10008;48.682;9.016;2023-06-26T03:26:16;12.20;;;11.20;;
3405;SDS011;10008;48.682;9.016;2023-06-26T03:28:44;12.50;;;11.50;;
3405;SDS011;10008;48.682;9.016;2023-06-26T03:31:09;12.20;;;11.20;;
3405;SDS011;10008;48.682;9.016;2023-06-26T03:33:36;12.00;;;11.00;;
3405;SDS011;10008;48.682;9.016;2023-06-26T03:36:02;11.90;;;10.90;;
3405;SDS011;10008;48.682;9.016;2023-06-26T03:38:29;11.80;;;10.80;;
3405;SDS011;10008;48.682;9.016;2023-06-26T03:40:57;14.67;;;13.47;;
3405;SDS011;10008;48.682;9.016;2023-06-26T03:43:22;11.70;;;10.70;;
3405;SDS011;10008;48.682;9.016;2023-06-26T03:45:58;12.17;;;11.17;;
3405;SDS011;10008;48.682;9.016;2023-06-26T03:48:25;12.80;;;11.70;;
3405;SDS011;10008;48.682;9.016;2023-06-26T03:50:51;12.23;;;11.23;;
3405;SDS011;10008;48.682;9.016;2023-06-26T03:53:16;15.53;;;14.33;;
3405;SDS011;10008;48.682;9.016;2023-06-26T03:55:42;12.20;;;11.20;;
3405;SDS011;10008;48.682;9.016;2023-06-26T03:58:08;13.27;;;12.17;;
3405;SDS011;10008;48.682;9.016;2023-06-26T04:00:34;12.60;;;11.60;;
3405;SDS011;10008;48.682;9.016;2023-06-26T04:03:00;12.87;;;11.77;;
3405;SDS011;10008;48.682;9.016;2023-06-26T04:05:29;13.20;;;12.10;;
3405;SDS011;10008;48.682;9.016;2023-06-26T04:07:55;14.07;;;12.80;;
3405;SDS011;10008;48.682;9.016;2023-06-26T04:10:20;14.00;;;12.80;;
3405;SDS011;10008;48.682;9.016;2023-06-26T04:12:47;14.03;;;12.73;;
3405;SDS011;10008;48.682;9.016;2023-06-26T04:15:13;14.40;;;13.10;;
3405;SDS011;10008;48.682;9.016;2023-06-26T04:17:39;14.10;;;12.80;;
3405;SDS011;10008;48.682;9.016;2023-06-26T04:20:05;14.30;;;13.00;;
3405;SDS011;10008;48.682;9.016;2023-06-26T04:22:34;14.63;;;13.33;;
3405;SDS011;10008;48.682;9.016;2023-06-26T04:25:03;14.10;;;12.80;;
3405;SDS011;10008;48.682;9.016;2023-06-26T04:27:29;13.40;;;12.20;;
3405;SDS011;10008;48.682;9.016;2023-06-26T04:29:55;15.40;;;14.00;;
3405;SDS011;10008;48.682;9.016;2023-06-26T04:32:21;13.30;;;12.10;;
3405;SDS011;10008;48.682;9.016;2023-06-26T04:34:47;13.50;;;12.30;;
3405;SDS011;10008;48.682;9.016;2023-06-26T04:37:13;13.60;;;12.40;;
3405;SDS011;10008;48.682;9.016;2023-06-26T04:39:42;13.23;;;12.13;;
3405;SDS011;10008;48.682;9.016;2023-06-26T04:42:08;13.43;;;12.23;;
3405;SDS011;10008;48.682;9.016;2023-06-26T04:44:35;14.07;;;12.87;;
3405;SDS011;10008;48.682;9.016;2023-06-26T04:47:02;13.40;;;12.20;;
3405;SDS011;10008;48.682;9.016;2023-06-26T04:49:29;13.80;;;12.60;;
3405;SDS011;10008;48.682;9.016;2023-06-26T04:51:55;17.73;;;13.47;;
3405;SDS011;10008;48.682;9.016;2023-06-26T04:54:21;14.40;;;13.10;;
3405;SDS011;10008;48.682;9.016;2023-06-26T04:56:48;15.00;;;13.60;;
3405;SDS011;10008;48.682;9.016;2023-06-26T04:59:14;13.50;;;12.30;;
3405;SDS011;10008;48.682;9.016;2023-06-26T05:01:40;14.07;;;12.87;;
3405;SDS011;10008;48.682;9.016;2023-06-26T05:04:06;14.57;;;13.27;;
3405;SDS011;10008;48.682;9.016;2023-06-26T05:06:32;13.80;;;12.60;;
3405;SDS011;10008;48.682;9.016;2023-06-26T05:08:58;13.80;;;12.60;;
3405;SDS011;10008;48.682;9.016;2023-06-26T05:11:24;14.03;;;12.73;;
3405;SDS011;10008;48.682;9.016;2023-06-26T05:13:50;13.30;;;12.10;;
3405;SDS011;10008;48.682;9.016;2023-06-26T05:16:15;13.50;;;12.30;;
3405;SDS011;10008;48.682;9.016;2023-06-26T05:18:41;13.50;;;12.30;;
3405;SDS011;10008;48.682;9.016;2023-06-26T05:21:07;13.60;;;12.40;;
3405;SDS011;10008;48.682;9.016;2023-06-26T05:23:34;13.53;;;12.33;;
3405;SDS011;10008;48.682;9.016;2023-06-26T05:26:00;13.60;;;12.40;;
3405;SDS011;10008;48.682;9.016;2023-06-26T05:28:28;14.00;;;12.70;;
3405;SDS011;10008;48.682;9.016;2023-06-26T05:30:56;13.60;;;12.40;;
3405;SDS011;10008;48.682;9.016;2023-06-26T05:33:23;14.17;;;12.87;;
3405;SDS011;10008;48.682;9.016;2023-06-26T05:35:53;13.30;;;12.10;;
3405;SDS011;10008;48.682;9.016;2023-06-26T05:38:20;13.80;;;12.60;;
3405;SDS011;10008;48.682;9.016;2023-06-26T05:40:46;13.37;;;12.20;;
3405;SDS011;10008;48.682;9.016;2023-06-26T05:43:12;13.63;;;12.50;;
3405;SDS011;10008;48.682;9.016;2023-06-26T05:45:39;13.60;;;12.40;;
3405;SDS011;10008;48.682;9.016;2023-06-26T05:48:05;13.60;;;12.40;;
3405;SDS011;10008;48.682;9.016;2023-06-26T05:50:31;13.50;;;12.30;;
3405;SDS011;10008;48.682;9.016;2023-06-26T05:52:57;13.70;;;12.50;;
3405;SDS011;10008;48.682;9.016;2023-06-26T05:55:23;13.70;;;12.50;;
3405;SDS011;10008;48.682;9.016;2023-06-26T05:57:49;14.57;;;13.37;;
3405;SDS011;10008;48.682;9.016;2023-06-26T06:00:16;13.93;;;12.73;;
3405;SDS011;10008;48.682;9.016;2023-06-26T06:02:42;13.93;;;12.73;;
3405;SDS011;10008;48.682;9.016;2023-06-26T06:05:08;13.70;;;12.50;;
3405;SDS011;10008;48.682;9.016;2023-06-26T06:07:35;13.90;;;12.70;;
3405;SDS011;10008;48.682;9.016;2023-06-26T06:10:01;13.93;;;12.73;;
3405;SDS011;10008;48.682;9.016;2023-06-26T06:12:28;14.20;;;12.90;;
3405;SDS011;10008;48.682;9.016;2023-06-26T06:14:55;13.97;;;12.77;;
3405;SDS011;10008;48.682;9.016;2023-06-26T06:17:21;15.50;;;14.10;;
3405;SDS011;10008;48.682;9.016;2023-06-26T06:19:47;14.20;;;12.90;;
3405;SDS011;10008;48.682;9.016;2023-06-26T06:22:13;14.37;;;13.07;;
3405;SDS011;10008;48.682;9.016;2023-06-26T06:24:39;16.90;;;15.40;;
3405;SDS011;10008;48.682;9.016;2023-06-26T06:27:05;15.23;;;13.83;;
3405;SDS011;10008;48.682;9.016;2023-06-26T06:29:30;14.37;;;13.07;;
3405;SDS011;10008;48.682;9.016;2023-06-26T06:31:56;14.50;;;13.10;;
3405;SDS011;10008;48.682;9.016;2023-06-26T06:34:22;16.20;;;14.67;;
3405;SDS011;10008;48.682;9.016;2023-06-26T06:36:48;14.70;;;13.40;;
3405;SDS011;10008;48.682;9.016;2023-06-26T06:39:15;14.83;;;13.43;;
3405;SDS011;10008;48.682;9.016;2023-06-26T06:41:41;14.40;;;13.10;;
3405;SDS011;10008;48.682;9.016;2023-06-26T06:44:07;16.13;;;14.60;;
3405;SDS011;10008;48.682;9.016;2023-06-26T06:46:32;16.50;;;15.00;;
3405;SDS011;10008;48.682;9.016;2023-06-26T06:48:58;16.37;;;14.83;;
3405;SDS011;10008;48.682;9.016;2023-06-26T06:51:25;14.67;;;13.37;;
3405;SDS011;10008;48.682;9.016;2023-06-26T06:53:51;15.27;;;13.87;;
3405;SDS011;10008;48.682;9.016;2023-06-26T06:56:17;16.80;;;15.20;;
3405;SDS011;10008;48.682;9.016;2023-06-26T06:58:42;15.10;;;13.80;;
3405;SDS011;10008;48.682;9.016;2023-06-26T07:01:10;15.57;;;14.17;;
3405;SDS011;10008;48.682;9.016;2023-06-26T07:03:36;15.90;;;14.50;;
3405;SDS011;10008;48.682;9.016;2023-06-26T07:06:02;18.07;;;16.27;;
3405;SDS011;10008;48.682;9.016;2023-06-26T07:08:28;19.97;;;17.97;;
3405;SDS011;10008;48.682;9.016;2023-06-26T07:10:55;15.73;;;14.33;;
3405;SDS011;10008;48.682;9.016;2023-06-26T07:13:24;16.60;;;15.10;;
3405;SDS011;10008;48.682;9.016;2023-06-26T07:15:50;16.60;;;15.10;;
3405;SDS011;10008;48.682;9.016;2023-06-26T07:18:16;16.33;;;14.83;;
3405;SDS011;10008;48.682;9.016;2023-06-26T07:20:42;16.00;;;14.60;;
3405;SDS011;10008;48.682;9.016;2023-06-26T07:23:07;19.53;;;17.50;;
3405;SDS011;10008;48.682;9.016;2023-06-26T07:25:34;17.63;;;15.83;;
3405;SDS011;10008;48.682;9.016;2023-06-26T07:28:00;17.17;;;15.63;;
3405;SDS011;10008;48.682;9.016;2023-06-26T07:30:26;16.70;;;15.20;;
3405;SDS011;10008;48.682;9.016;2023-06-26T07:32:52;17.07;;;15.47;;
3405;SDS011;10008;48.682;9.016;2023-06-26T07:35:17;17.10;;;15.53;;
3405;SDS011;10008;48.682;9.016;2023-06-26T07:37:43;16.37;;;14.87;;
3405;SDS011;10008;48.682;9.016;2023-06-26T07:40:09;17.00;;;15.40;;
3405;SDS011;10008;48.682;9.016;2023-06-26T07:42:35;16.23;;;14.83;;
3405;SDS011;10008;48.682;9.016;2023-06-26T07:45:01;15.80;;;14.40;;
3405;SDS011;10008;48.682;9.016;2023-06-26T07:47:27;16.60;;;15.10;;
3405;SDS011;10008;48.682;9.016;2023-06-26T07:49:52;17.30;;;15.57;;
3405;SDS011;10008;48.682;9.016;2023-06-26T07:52:18;17.50;;;16.00;;
3405;SDS011;10008;48.682;9.016;2023-06-26T07:54:44;15.67;;;14.30;;
3405;SDS011;10008;48.682;9.016;2023-06-26T07:57:10;16.67;;;15.20;;
3405;SDS011;10008;48.682;9.016;2023-06-26T07:59:37;17.40;;;15.80;;
3405;SDS011;10008;48.682;9.016;2023-06-26T08:02:04;16.33;;;14.93;;
3405;SDS011;10008;48.682;9.016;2023-06-26T08:04:30;16.47;;;14.97;;
3405;SDS011;10008;48.682;9.016;2023-06-26T08:06:57;15.87;;;14.37;;
3405;SDS011;10008;48.682;9.016;2023-06-26T08:09:25;15.90;;;14.50;;
3405;SDS011;10008;48.682;9.016;2023-06-26T08:11:52;15.63;;;14.23;;
3405;SDS011;10008;48.682;9.016;2023-06-26T08:14:18;16.53;;;15.03;;
3405;SDS011;10008;48.682;9.016;2023-06-26T08:16:44;16.37;;;14.87;;
3405;SDS011;10008;48.682;9.016;2023-06-26T08:19:11;15.30;;;13.90;;
3405;SDS011;10008;48.682;9.016;2023-06-26T08:21:39;16.10;;;14.60;;
3405;SDS011;10008;48.682;9.016;2023-06-26T08:24:05;17.47;;;15.80;;
3405;SDS011;10008;48.682;9.016;2023-06-26T08:26:31;16.20;;;14.70;;
3405;SDS011;10008;48.682;9.016;2023-06-26T08:28:57;17.70;;;15.90;;
3405;SDS011;10008;48.682;9.016;2023-06-26T08:31:22;17.13;;;15.53;;
3405;SDS011;10008;48.682;9.016;2023-06-26T08:33:48;16.20;;;14.70;;
3405;SDS011;10008;48.682;9.016;2023-06-26T08:36:14;17.80;;;16.10;;
3405;SDS011;10008;48.682;9.016;2023-06-26T08:38:40;18.13;;;16.40;;
3405;SDS011;10008;48.682;9.016;2023-06-26T08:41:06;15.30;;;13.90;;
3405;SDS011;10008;48.682;9.016;2023-06-26T08:43:32;18.47;;;16.50;;
3405;SDS011;10008;48.682;9.016;2023-06-26T08:45:59;16.43;;;14.80;;
3405;SDS011;10008;48.682;9.016;2023-06-26T08:48:28;16.00;;;14.50;;
3405;SDS011;10008;48.682;9.016;2023-06-26T08:50:56;19.63;;;17.70;;
3405;SDS011;10008;48.682;9.016;2023-06-26T08:55:58;17.20;;;15.60;;
3405;SDS011;10008;48.682;9.016;2023-06-26T08:58:25;15.87;;;14.47;;
3405;SDS011;10008;48.682;9.016;2023-06-26T09:00:51;14.93;;;13.63;;
3405;SDS011;10008;48.682;9.016;2023-06-26T09:03:17;16.37;;;14.87;;
3405;SDS011;10008;48.682;9.016;2023-06-26T09:05:43;17.53;;;15.83;;
3405;SDS011;10008;48.682;9.016;2023-06-26T09:08:09;16.30;;;14.80;;
3405;SDS011;10008;48.682;9.016;2023-06-26T09:10:35;16.97;;;15.40;;
3405;SDS011;10008;48.682;9.016;2023-06-26T09:13:02;15.23;;;13.90;;
3405;SDS011;10008;48.682;9.016;2023-06-26T09:15:36;17.83;;;16.03;;
3405;SDS011;10008;48.682;9.016;2023-06-26T09:18:04;19.17;;;17.50;;
3405;SDS011;10008;48.682;9.016;2023-06-26T09:20:30;15.47;;;14.07;;
3405;SDS011;10008;48.682;9.016;2023-06-26T09:22:58;16.70;;;15.20;;
3405;SDS011;10008;48.682;9.016;2023-06-26T09:25:25;17.83;;;16.23;;
3405;SDS011;10008;48.682;9.016;2023-06-26T09:27:51;16.43;;;14.90;;
3405;SDS011;10008;48.682;9.016;2023-06-26T09:30:18;16.40;;;14.80;;
3405;SDS011;10008;48.682;9.016;2023-06-26T09:32:44;17.20;;;15.60;;
3405;SDS011;10008;48.682;9.016;2023-06-26T09:35:10;15.87;;;14.37;;
3405;SDS011;10008;48.682;9.016;2023-06-26T09:37:36;15.97;;;14.47;;
3405;SDS011;10008;48.682;9.016;2023-06-26T09:40:02;19.17;;;17.30;;
3405;SDS011;10008;48.682;9.016;2023-06-26T09:42:32;16.60;;;15.00;;
3405;SDS011;10008;48.682;9.016;2023-06-26T09:44:59;16.00;;;14.50;;
3405;SDS011;10008;48.682;9.016;2023-06-26T09:47:25;16.37;;;14.67;;
3405;SDS011;10008;48.682;9.016;2023-06-26T09:49:51;23.07;;;20.93;;
3405;SDS011;10008;48.682;9.016;2023-06-26T09:52:17;15.40;;;13.90;;
3405;SDS011;10008;48.682;9.016;2023-06-26T09:54:44;15.53;;;14.10;;
3405;SDS011;10008;48.682;9.016;2023-06-26T09:57:15;15.63;;;14.23;;
3405;SDS011;10008;48.682;9.016;2023-06-26T09:59:42;15.73;;;14.23;;
3405;SDS011;10008;48.682;9.016;2023-06-26T10:02:12;15.43;;;14.13;;
3405;SDS011;10008;48.682;9.016;2023-06-26T10:04:37;15.93;;;14.53;;
3405;SDS011;10008;48.682;9.016;2023-06-26T10:07:06;16.67;;;15.27;;
3405;SDS011;10008;48.682;9.016;2023-06-26T10:09:37;16.03;;;14.53;;
3405;SDS011;10008;48.682;9.016;2023-06-26T10:12:06;15.10;;;13.70;;
3405;SDS011;10008;48.682;9.016;2023-06-26T10:14:44;16.47;;;15.07;;
3405;SDS011;10008;48.682;9.016;2023-06-26T10:17:11;16.50;;;15.00;;
3405;SDS011;10008;48.682;9.016;2023-06-26T10:19:42;15.97;;;14.53;;
3405;SDS011;10008;48.682;9.016;2023-06-26T10:22:09;20.30;;;18.40;;
3405;SDS011;10008;48.682;9.016;2023-06-26T10:24:45;17.80;;;16.20;;
3405;SDS011;10008;48.682;9.016;2023-06-26T10:29:46;17.50;;;15.90;;
3405;SDS011;10008;48.682;9.016;2023-06-26T10:32:15;17.93;;;16.23;;
3405;SDS011;10008;48.682;9.016;2023-06-26T10:34:42;15.60;;;14.30;;
3405;SDS011;10008;48.682;9.016;2023-06-26T10:37:08;15.70;;;14.30;;
3405;SDS011;10008;48.682;9.016;2023-06-26T10:39:47;18.23;;;16.43;;
3405;SDS011;10008;48.682;9.016;2023-06-26T10:42:17;18.17;;;16.47;;
3405;SDS011;10008;48.682;9.016;2023-06-26T10:44:44;19.87;;;17.87;;
3405;SDS011;10008;48.682;9.016;2023-06-26T10:47:33;15.63;;;14.27;;
3405;SDS011;10008;48.682;9.016;2023-06-26T10:53:09;17.13;;;15.43;;
3405;SDS011;10008;48.682;9.016;2023-06-26T10:55:34;17.10;;;15.50;;
3405;SDS011;10008;48.682;9.016;2023-06-26T10:58:26;18.20;;;16.27;;
3405;SDS011;10008;48.682;9.016;2023-06-26T11:01:37;25.30;;;16.97;;
3405;SDS011;10008;48.682;9.016;2023-06-26T11:03:48;17.87;;;16.17;;
3405;SDS011;10008;48.682;9.016;2023-06-26T11:06:36;16.00;;;14.60;;
3405;SDS011;10008;48.682;9.016;2023-06-26T11:09:10;17.00;;;15.40;;
3405;SDS011;10008;48.682;9.016;2023-06-26T11:14:24;16.10;;;14.60;;
3405;SDS011;10008;48.682;9.016;2023-06-26T11:16:51;30.77;;;17.30;;
3405;SDS011;10008;48.682;9.016;2023-06-26T11:19:18;15.60;;;14.20;;
3405;SDS011;10008;48.682;9.016;2023-06-26T11:21:45;17.87;;;16.07;;
3405;SDS011;10008;48.682;9.016;2023-06-26T11:24:11;16.60;;;15.03;;
3405;SDS011;10008;48.682;9.016;2023-06-26T11:26:38;16.33;;;14.80;;
3405;SDS011;10008;48.682;9.016;2023-06-26T11:29:08;15.70;;;14.30;;
3405;SDS011;10008;48.682;9.016;2023-06-26T11:31:35;15.93;;;14.43;;
3405;SDS011;10008;48.682;9.016;2023-06-26T11:34:06;19.60;;;17.70;;
3405;SDS011;10008;48.682;9.016;2023-06-26T11:36:34;18.73;;;16.90;;
3405;SDS011;10008;48.682;9.016;2023-06-26T11:39:03;18.03;;;16.17;;
3405;SDS011;10008;48.682;9.016;2023-06-26T11:41:33;16.80;;;15.20;;
3405;SDS011;10008;48.682;9.016;2023-06-26T11:44:01;16.43;;;14.93;;
3405;SDS011;10008;48.682;9.016;2023-06-26T11:46:30;15.80;;;14.40;;
3405;SDS011;10008;48.682;9.016;2023-06-26T11:48:57;15.37;;;13.97;;
3405;SDS011;10008;48.682;9.016;2023-06-26T11:51:23;17.90;;;16.10;;
3405;SDS011;10008;48.682;9.016;2023-06-26T11:53:49;15.73;;;14.33;;
3405;SDS011;10008;48.682;9.016;2023-06-26T11:56:15;17.87;;;16.17;;
3405;SDS011;10008;48.682;9.016;2023-06-26T11:58:55;15.30;;;13.97;;
3405;SDS011;10008;48.682;9.016;2023-06-26T12:01:32;16.47;;;14.97;;
3405;SDS011;10008;48.682;9.016;2023-06-26T12:04:03;18.57;;;16.67;;
3405;SDS011;10008;48.682;9.016;2023-06-26T12:06:31;19.60;;;17.70;;
3405;SDS011;10008;48.682;9.016;2023-06-26T12:09:00;14.83;;;13.53;;
3405;SDS011;10008;48.682;9.016;2023-06-26T12:11:30;16.80;;;14.80;;
3405;SDS011;10008;48.682;9.016;2023-06-26T12:13:56;17.70;;;15.93;;
3405;SDS011;10008;48.682;9.016;2023-06-26T12:16:22;14.60;;;13.30;;
3405;SDS011;10008;48.682;9.016;2023-06-26T12:18:48;25.27;;;16.63;;
3405;SDS011;10008;48.682;9.016;2023-06-26T12:23:59;15.83;;;14.43;;
3405;SDS011;10008;48.682;9.016;2023-06-26T12:26:26;17.13;;;15.43;;
3405;SDS011;10008;48.682;9.016;2023-06-26T12:28:54;15.23;;;13.93;;
3405;SDS011;10008;48.682;9.016;2023-06-26T12:31:30;14.53;;;13.30;;
3405;SDS011;10008;48.682;9.016;2023-06-26T12:33:57;16.10;;;14.70;;
3405;SDS011;10008;48.682;9.016;2023-06-26T12:36:23;14.50;;;13.30;;
3405;SDS011;10008;48.682;9.016;2023-06-26T12:38:49;16.70;;;15.20;;
3405;SDS011;10008;48.682;9.016;2023-06-26T12:41:15;15.07;;;13.67;;
3405;SDS011;10008;48.682;9.016;2023-06-26T12:43:41;14.80;;;13.50;;
3405;SDS011;10008;48.682;9.016;2023-06-26T12:46:07;17.13;;;15.53;;
3405;SDS011;10008;48.682;9.016;2023-06-26T12:48:37;15.70;;;14.30;;
3405;SDS011;10008;48.682;9.016;2023-06-26T12:51:12;15.17;;;13.87;;
3405;SDS011;10008;48.682;9.016;2023-06-26T12:53:40;14.70;;;13.40;;
3405;SDS011;10008;48.682;9.016;2023-06-26T12:56:07;14.37;;;13.17;;
3405;SDS011;10008;48.682;9.016;2023-06-26T12:58:36;15.83;;;14.30;;
3405;SDS011;10008;48.682;9.016;2023-06-26T13:01:03;14.17;;;12.97;;
3405;SDS011;10008;48.682;9.016;2023-06-26T13:03:32;15.73;;;14.00;;
3405;SDS011;10008;48.682;9.016;2023-06-26T13:05:58;18.53;;;16.63;;
3405;SDS011;10008;48.682;9.016;2023-06-26T13:08:24;14.23;;;12.97;;
3405;SDS011;10008;48.682;9.016;2023-06-26T13:10:49;16.83;;;15.23;;
3405;SDS011;10008;48.682;9.016;2023-06-26T13:13:15;16.50;;;15.00;;
3405;SDS011;10008;48.682;9.016;2023-06-26T13:15:41;15.90;;;14.50;;
3405;SDS011;10008;48.682;9.016;2023-06-26T13:18:07;17.33;;;15.50;;
3405;SDS011;10008;48.682;9.016;2023-06-26T13:20:32;15.17;;;13.87;;
3405;SDS011;10008;48.682;9.016;2023-06-26T13:22:58;15.00;;;13.70;;
3405;SDS011;10008;48.682;9.016;2023-06-26T13:25:24;14.40;;;13.10;;
3405;SDS011;10008;48.682;9.016;2023-06-26T13:27:49;15.50;;;14.00;;
3405;SDS011;10008;48.682;9.016;2023-06-26T13:30:15;21.30;;;16.43;;
3405;SDS011;10008;48.682;9.016;2023-06-26T13:32:41;15.27;;;13.87;;
3405;SDS011;10008;48.682;9.016;2023-06-26T13:35:08;14.93;;;13.50;;
3405;SDS011;10008;48.682;9.016;2023-06-26T13:37:35;15.13;;;13.83;;
3405;SDS011;10008;48.682;9.016;2023-06-26T13:40:02;14.77;;;13.47;;
3405;SDS011;10008;48.682;9.016;2023-06-26T13:42:28;15.00;;;13.60;;
3405;SDS011;10008;48.682;9.016;2023-06-26T13:44:54;15.03;;;13.70;;
3405;SDS011;10008;48.682;9.016;2023-06-26T13:47:20;16.73;;;15.10;;
3405;SDS011;10008;48.682;9.016;2023-06-26T13:49:46;15.10;;;13.70;;
3405;SDS011;10008;48.682;9.016;2023-06-26T13:52:12;16.50;;;14.90;;
3405;SDS011;10008;48.682;9.016;2023-06-26T13:54:38;15.23;;;13.90;;
3405;SDS011;10008;48.682;9.016;2023-06-26T13:57:05;17.07;;;15.37;;
3405;SDS011;10008;48.682;9.016;2023-06-26T13:59:31;15.50;;;14.10;;
3405;SDS011;10008;48.682;9.016;2023-06-26T14:01:58;17.13;;;14.70;;
3405;SDS011;10008;48.682;9.016;2023-06-26T14:04:24;18.90;;;17.00;;
3405;SDS011;10008;48.682;9.016;2023-06-26T14:06:50;16.10;;;14.60;;
3405;SDS011;10008;48.682;9.016;2023-06-26T14:09:16;14.80;;;13.50;;
3405;SDS011;10008;48.682;9.016;2023-06-26T14:11:43;15.70;;;14.20;;
3405;SDS011;10008;48.682;9.016;2023-06-26T14:14:09;14.50;;;13.20;;
3405;SDS011;10008;48.682;9.016;2023-06-26T14:16:35;17.13;;;15.30;;
3405;SDS011;10008;48.682;9.016;2023-06-26T14:19:01;15.63;;;14.13;;
3405;SDS011;10008;48.682;9.016;2023-06-26T14:21:27;14.27;;;13.00;;
3405;SDS011;10008;48.682;9.016;2023-06-26T14:23:56;16.07;;;14.43;;
3405;SDS011;10008;48.682;9.016;2023-06-26T14:26:22;16.57;;;15.07;;
3405;SDS011;10008;48.682;9.016;2023-06-26T14:28:47;15.60;;;14.20;;
3405;SDS011;10008;48.682;9.016;2023-06-26T14:31:13;15.60;;;14.20;;
3405;SDS011;10008;48.682;9.016;2023-06-26T14:33:39;15.30;;;13.90;;
3405;SDS011;10008;48.682;9.016;2023-06-26T14:36:04;15.33;;;13.93;;
3405;SDS011;10008;48.682;9.016;2023-06-26T14:38:30;15.00;;;13.70;;
3405;SDS011;10008;48.682;9.016;2023-06-26T14:40:56;15.50;;;14.17;;
3405;SDS011;10008;48.682;9.016;2023-06-26T14:43:22;14.80;;;13.50;;
3405;SDS011;10008;48.682;9.016;2023-06-26T14:45:47;14.10;;;12.80;;
3405;SDS011;10008;48.682;9.016;2023-06-26T14:48:13;13.80;;;12.60;;
3405;SDS011;10008;48.682;9.016;2023-06-26T14:50:39;15.13;;;13.73;;
3405;SDS011;10008;48.682;9.016;2023-06-26T14:53:05;16.40;;;14.90;;
3405;SDS011;10008;48.682;9.016;2023-06-26T14:55:31;15.40;;;14.10;;